Time;durP1;ratioP1;P1;durP2;ratioP2;P2;SDS_P1;SDS_P2;PMS_P1;PMS_P2;Temp;Humidity;BMP_temperature;BMP_pressure;BME280_temperature;BME280_humidity;BME280_pressure;Samples;Min_cycle;Max_cycle;Signal;HPM_P1;HPM_P2
2023/11/22 00:01:26;;;;;;;60.37;25.23;;;;;;;5.59;88.74;100312.13;124583;1109;101906;-83
2023/11/22 00:03:57;;;;;;;62.70;25.20;;;;;;;5.58;88.93;100300.83;124473;1109;104208;-84
2023/11/22 00:06:29;;;;;;;62.50;25.05;;;;;;;5.58;89.23;100306.03;124620;1109;101869;-84
2023/11/22 00:09:01;;;;;;;58.33;26.57;;;;;;;5.59;88.72;100306.92;124448;1109;101938;-84
2023/11/22 00:11:35;;;;;;;56.47;25.60;;;;;;;5.61;89.02;100309.59;124375;1108;102202;-83
2023/11/22 00:14:07;;;;;;;55.93;24.80;;;;;;;5.60;89.00;100303.52;124495;1108;103679;-82
2023/11/22 00:16:40;;;;;;;62.30;25.53;;;;;;;5.58;89.06;100300.83;124407;1109;101900;-82
2023/11/22 00:19:11;;;;;;;57.30;23.50;;;;;;;5.56;89.41;100292.05;124379;1109;104258;-83
2023/11/22 00:21:43;;;;;;;58.93;24.97;;;;;;;5.54;89.09;100291.06;124392;1108;104270;-81
2023/11/22 00:24:14;;;;;;;60.20;25.67;;;;;;;5.57;89.52;100295.54;124394;1108;102022;-83
2023/11/22 00:26:46;;;;;;;62.37;25.60;;;;;;;5.57;89.57;100295.54;124482;1109;104261;-83
2023/11/22 00:29:17;;;;;;;65.20;24.80;;;;;;;5.57;89.50;100293.82;124538;1108;101910;-84
2023/11/22 00:31:49;;;;;;;61.53;25.33;;;;;;;5.55;89.73;100297.18;124536;1108;104146;-84
2023/11/22 00:34:20;;;;;;;58.73;23.60;;;;;;;5.54;89.51;100293.66;124543;1108;102512;-83
2023/11/22 00:36:52;;;;;;;60.10;23.93;;;;;;;5.54;89.57;100301.47;124532;1108;104211;-83
2023/11/22 00:39:23;;;;;;;58.15;23.75;;;;;;;5.55;89.90;100302.39;124593;1108;104217;-85
2023/11/22 00:41:55;;;;;;;60.93;25.07;;;;;;;5.55;89.98;100300.66;124510;1108;104181;-83
2023/11/22 00:44:27;;;;;;;58.93;25.20;;;;;;;5.56;89.63;100301.55;124479;1107;102064;-84
2023/11/22 00:46:58;;;;;;;60.90;24.97;;;;;;;5.57;89.62;100298.14;124413;1108;102023;-85
2023/11/22 00:49:30;;;;;;;60.00;25.85;;;;;;;5.59;89.53;100296.50;124588;1109;104268;-84
2023/11/22 00:52:02;;;;;;;61.57;24.97;;;;;;;5.59;89.90;100296.50;124518;1108;102586;-83
2023/11/22 00:54:34;;;;;;;62.97;26.90;;;;;;;5.61;89.84;100296.59;124499;1108;102022;-83
2023/11/22 00:57:06;;;;;;;61.37;25.27;;;;;;;5.62;90.12;100293.17;124539;1109;104309;-85
2023/11/22 00:59:38;;;;;;;68.40;27.23;;;;;;;5.64;90.09;100286.33;124696;1109;101952;-82
2023/11/22 01:02:09;;;;;;;60.67;25.63;;;;;;;5.64;89.59;100286.33;124663;1108;104223;-82
2023/11/22 01:04:41;;;;;;;63.43;26.53;;;;;;;5.64;89.86;100288.94;124586;1109;102701;-84
2023/11/22 01:07:12;;;;;;;60.47;25.20;;;;;;;5.60;89.99;100295.70;124562;1108;102170;-84
2023/11/22 01:09:44;;;;;;;59.83;24.93;;;;;;;5.58;89.93;100287.81;124672;1108;102013;-83
2023/11/22 01:12:15;;;;;;;66.30;25.33;;;;;;;5.57;89.98;100282.53;124444;1109;104320;-84
2023/11/22 01:14:47;;;;;;;63.30;26.70;;;;;;;5.56;89.68;100286.84;124375;1109;104328;-84
2023/11/22 01:17:18;;;;;;;59.70;24.23;;;;;;;5.56;90.25;100284.25;124556;1109;101894;-84
2023/11/22 01:19:50;;;;;;;67.60;24.70;;;;;;;5.56;90.20;100283.33;124496;1108;104354;-84
2023/11/22 01:22:21;;;;;;;65.03;25.60;;;;;;;5.57;90.67;100274.72;124537;1108;101842;-84
2023/11/22 01:24:55;;;;;;;72.33;26.20;;;;;;;5.56;90.25;100271.23;124577;1108;104311;-83
2023/11/22 01:27:27;;;;;;;60.05;22.22;;;;;;;5.55;90.11;100277.24;124435;1108;104198;-84
2023/11/22 01:29:59;;;;;;;61.90;25.37;;;;;;;5.53;90.33;100276.28;124521;1109;101867;-84
2023/11/22 01:32:30;;;;;;;67.23;25.83;;;;;;;5.53;90.46;100284.09;124673;1109;102026;-83
2023/11/22 01:35:03;;;;;;;66.60;24.87;;;;;;;5.50;90.35;100278.72;124530;1108;104264;-83
2023/11/22 01:37:34;;;;;;;72.63;23.43;;;;;;;5.48;90.32;100277.72;124637;1106;101946;-84
2023/11/22 01:40:08;;;;;;;65.90;25.10;;;;;;;5.49;90.33;100276.03;124565;1106;102122;-83
2023/11/22 01:42:40;;;;;;;68.73;22.67;;;;;;;5.49;90.63;100282.13;124617;1108;104366;-84
2023/11/22 01:45:13;;;;;;;68.20;22.37;;;;;;;5.48;90.44;100272.52;124509;1109;102015;-83
2023/11/22 01:47:45;;;;;;;62.25;23.62;;;;;;;5.47;90.78;100260.34;124646;1109;102351;-84
2023/11/22 01:50:17;;;;;;;66.10;23.63;;;;;;;5.46;90.53;100258.54;124600;1109;104239;-83
2023/11/22 01:52:49;;;;;;;64.90;24.20;;;;;;;5.44;90.54;100259.27;124569;1108;102283;-83
2023/11/22 01:55:20;;;;;;;63.63;24.37;;;;;;;5.44;90.58;100260.18;124462;1109;104284;-83
2023/11/22 01:57:52;;;;;;;56.00;22.77;;;;;;;5.44;90.90;100257.58;124494;1108;101852;-85
2023/11/22 02:00:25;;;;;;;73.87;23.73;;;;;;;5.45;90.61;100261.06;124501;1109;102119;-83
2023/11/22 02:02:57;;;;;;;60.98;23.30;;;;;;;5.43;90.83;100253.17;124449;1109;102035;-84
2023/11/22 02:05:28;;;;;;;62.87;22.00;;;;;;;5.43;91.04;100249.69;124366;1109;104345;-83
2023/11/22 02:08:00;;;;;;;59.87;23.77;;;;;;;5.39;90.55;100254.73;124494;1109;104187;-84
2023/11/22 02:10:32;;;;;;;57.10;23.30;;;;;;;5.41;91.17;100260.02;124617;1108;104265;-83
2023/11/22 02:13:07;;;;;;;60.37;23.13;;;;;;;5.40;90.70;100251.30;124555;1108;104231;-83
2023/11/22 02:15:41;;;;;;;59.05;24.50;;;;;;;5.42;90.85;100256.58;124498;1108;102308;-84
2023/11/22 02:18:13;;;;;;;55.85;23.35;;;;;;;5.43;91.27;100257.50;124573;1109;103135;-84
2023/11/22 02:20:45;;;;;;;59.10;23.30;;;;;;;5.44;91.43;100259.27;124732;1109;102707;-83
2023/11/22 02:23:17;;;;;;;58.63;22.87;;;;;;;5.44;91.28;100254.05;124679;1109;101891;-83
2023/11/22 02:25:49;;;;;;;57.37;22.83;;;;;;;5.44;91.13;100264.47;124839;1108;102315;-83
2023/11/22 02:28:20;;;;;;;65.20;23.20;;;;;;;5.44;91.02;100264.47;124654;1108;101943;-83
2023/11/22 02:30:52;;;;;;;65.43;23.57;;;;;;;5.39;91.00;100267.74;124619;1108;104451;-84
2023/11/22 02:33:24;;;;;;;61.83;23.33;;;;;;;5.34;90.92;100268.30;124690;1108;104098;-83
2023/11/22 02:35:56;;;;;;;61.90;23.57;;;;;;;5.30;91.12;100263.73;124517;1108;101959;-84
2023/11/22 02:38:28;;;;;;;63.67;21.90;;;;;;;5.28;91.47;100267.98;124648;1108;102354;-84
2023/11/22 02:41:00;;;;;;;61.87;23.10;;;;;;;5.28;91.13;100268.86;124680;1108;101967;-83
2023/11/22 02:43:33;;;;;;;60.37;23.30;;;;;;;5.30;91.47;100266.34;124562;1109;104201;-84
2023/11/22 02:46:04;;;;;;;64.97;23.27;;;;;;;5.31;91.26;100269.02;124720;1109;102459;-84
2023/11/22 02:48:37;;;;;;;60.53;22.40;;;;;;;5.32;91.48;100270.83;124819;1109;101918;-84
2023/11/22 02:51:08;;;;;;;63.60;23.40;;;;;;;5.34;91.53;100266.58;124784;1109;102359;-84
2023/11/22 02:53:43;;;;;;;58.63;22.60;;;;;;;5.33;91.16;100266.50;125031;1109;101984;-84
2023/11/22 02:56:15;;;;;;;61.40;21.97;;;;;;;5.33;91.32;100267.42;124981;1108;102141;-83
2023/11/22 02:58:48;;;;;;;55.48;21.45;;;;;;;5.30;91.28;100269.86;124883;1108;101886;-82
2023/11/22 03:01:20;;;;;;;55.80;22.00;;;;;;;5.29;91.23;100270.66;125003;1109;102226;-83
2023/11/22 03:03:51;;;;;;;55.80;20.57;;;;;;;5.30;91.37;100275.06;124970;1108;102052;-84
2023/11/22 03:06:23;;;;;;;57.60;21.87;;;;;;;5.29;91.50;100278.46;124868;1109;102037;-83
2023/11/22 03:08:55;;;;;;;55.63;21.97;;;;;;;5.27;91.60;100281.82;124865;1108;101844;-84
2023/11/22 03:11:27;;;;;;;55.53;23.17;;;;;;;5.25;91.49;100276.53;125015;1109;102370;-84
2023/11/22 03:13:58;;;;;;;52.30;21.40;;;;;;;5.25;91.70;100268.73;124713;1109;104153;-84
2023/11/22 03:16:30;;;;;;;60.17;22.80;;;;;;;5.25;91.54;100279.14;124687;1108;101852;-84
2023/11/22 03:19:02;;;;;;;52.03;21.17;;;;;;;5.25;91.46;100280.82;124913;1108;104323;-84
2023/11/22 03:21:35;;;;;;;53.33;21.77;;;;;;;5.24;91.40;100277.33;124887;1109;102716;-83
2023/11/22 03:24:08;;;;;;;51.97;21.63;;;;;;;5.21;91.27;100284.97;124973;1109;104418;-84
2023/11/22 03:26:40;;;;;;;51.85;21.20;;;;;;;5.22;91.84;100289.38;124536;1108;104201;-84
2023/11/22 03:29:12;;;;;;;47.87;19.67;;;;;;;5.23;91.83;100298.95;124451;1108;104250;-85
2023/11/22 03:31:43;;;;;;;50.17;20.07;;;;;;;5.22;91.77;100304.98;124485;1109;101939;-84
2023/11/22 03:34:16;;;;;;;49.20;20.37;;;;;;;5.22;92.20;100304.98;124509;1106;104349;-86
2023/11/22 03:36:48;;;;;;;52.13;20.77;;;;;;;5.23;91.56;100309.35;124407;1109;104188;-84
2023/11/22 03:39:20;;;;;;;47.40;20.50;;;;;;;5.26;91.82;100306.03;124450;1108;104254;-85
2023/11/22 03:41:51;;;;;;;48.23;20.70;;;;;;;5.28;91.99;100307.88;124464;1109;104188;-85
2023/11/22 03:44:23;;;;;;;49.97;19.00;;;;;;;5.28;91.66;100313.09;124560;1108;102037;-84
2023/11/22 03:46:54;;;;;;;48.13;19.50;;;;;;;5.27;92.31;100308.72;124533;1108;102207;-85
2023/11/22 03:49:26;;;;;;;47.07;19.23;;;;;;;5.26;91.96;100312.13;124497;1108;102068;-83
2023/11/22 03:51:58;;;;;;;47.10;18.87;;;;;;;5.22;91.79;100307.59;124580;1108;101993;-83
2023/11/22 03:54:30;;;;;;;47.13;19.93;;;;;;;5.19;91.81;100310.91;124551;1108;102052;-83
2023/11/22 03:57:01;;;;;;;44.73;18.73;;;;;;;5.16;91.49;100310.73;124559;1108;104300;-84
2023/11/22 03:59:33;;;;;;;45.90;20.37;;;;;;;5.16;92.01;100309.86;124468;1108;101879;-85
2023/11/22 04:02:05;;;;;;;46.67;19.67;;;;;;;5.16;91.97;100300.33;124444;1108;102094;-84
2023/11/22 04:04:39;;;;;;;50.13;20.33;;;;;;;5.16;92.16;100309.86;124431;1108;101864;-85
2023/11/22 04:07:10;;;;;;;52.73;19.83;;;;;;;5.16;91.93;100304.66;124440;1108;104252;-84
2023/11/22 04:09:42;;;;;;;49.27;19.90;;;;;;;5.19;92.14;100307.42;124453;1108;102299;-84
2023/11/22 04:12:14;;;;;;;41.97;18.30;;;;;;;5.16;91.81;100304.66;124440;1108;102103;-84
2023/11/22 04:14:46;;;;;;;43.10;18.90;;;;;;;5.14;91.76;100306.25;124424;1107;102284;-84
2023/11/22 04:17:18;;;;;;;43.63;17.67;;;;;;;5.13;92.02;100309.69;124543;1108;104237;-85
2023/11/22 04:19:49;;;;;;;45.23;19.70;;;;;;;5.16;91.60;100307.25;124504;1108;102713;-84
2023/11/22 04:22:21;;;;;;;59.03;20.97;;;;;;;5.17;92.15;100317.74;124486;1109;104212;-85
2023/11/22 04:24:52;;;;;;;46.93;18.70;;;;;;;5.19;92.45;100313.50;124474;1107;104294;-84
2023/11/22 04:27:23;;;;;;;49.03;19.30;;;;;;;5.20;91.92;100316.99;124962;1108;104264;-85
2023/11/22 04:29:55;;;;;;;47.60;20.00;;;;;;;5.21;92.62;100332.69;124628;1109;104101;-85
2023/11/22 04:32:27;;;;;;;46.57;19.13;;;;;;;5.21;92.12;100329.20;124759;1109;102045;-85
2023/11/22 04:34:59;;;;;;;47.03;19.00;;;;;;;5.24;92.42;100336.28;124583;1108;102175;-85
2023/11/22 04:37:32;;;;;;;43.43;18.33;;;;;;;5.24;92.35;100338.89;124484;1108;104335;-84
2023/11/22 04:40:07;;;;;;;47.33;19.47;;;;;;;5.25;92.51;100338.97;124611;1109;101877;-82
2023/11/22 04:42:39;;;;;;;45.75;19.40;;;;;;;5.25;92.45;100349.37;124704;1109;101822;-81
2023/11/22 04:45:12;;;;;;;45.83;19.00;;;;;;;5.24;91.91;100352.78;124579;1109;104300;-82
2023/11/22 04:47:44;;;;;;;48.38;20.05;;;;;;;5.20;91.93;100358.61;124568;1108;102533;-82
2023/11/22 04:50:15;;;;;;;47.47;19.97;;;;;;;5.21;92.22;100352.61;124694;1108;101919;-82
2023/11/22 04:52:49;;;;;;;53.58;19.52;;;;;;;5.23;92.45;100356.18;124632;1108;101804;-81
2023/11/22 04:55:22;;;;;;;47.83;20.30;;;;;;;5.25;92.41;100364.98;124506;1108;104198;-82
2023/11/22 04:57:54;;;;;;;55.37;20.60;;;;;;;5.24;92.46;100354.50;124549;1108;102674;-82
2023/11/22 05:00:25;;;;;;;48.97;20.40;;;;;;;5.27;92.71;100362.47;125006;1108;102336;-79
2023/11/22 05:02:57;;;;;;;46.80;19.03;;;;;;;5.27;92.53;100359.87;124696;1108;104220;-82
2023/11/22 05:05:28;;;;;;;48.33;19.97;;;;;;;5.29;93.03;100358.23;124612;1108;104290;-81
2023/11/22 05:08:00;;;;;;;48.87;19.67;;;;;;;5.30;92.18;100360.92;124494;1109;104268;-82
2023/11/22 05:10:35;;;;;;;51.53;19.90;;;;;;;5.32;92.30;100366.20;124604;1108;101856;-81
2023/11/22 05:13:06;;;;;;;47.07;19.53;;;;;;;5.31;92.57;100361.80;124701;1108;102531;-81
2023/11/22 05:15:38;;;;;;;54.90;20.40;;;;;;;5.28;92.39;100354.72;124673;1109;102313;-79
2023/11/22 05:18:09;;;;;;;53.37;19.93;;;;;;;5.29;92.75;100358.23;124790;1106;102103;-82
2023/11/22 05:20:41;;;;;;;49.10;20.50;;;;;;;5.30;92.43;100357.40;124691;1108;104236;-84
2023/11/22 05:23:13;;;;;;;49.10;20.13;;;;;;;5.30;92.67;100363.52;124837;1108;102059;-82
2023/11/22 05:25:46;;;;;;;50.33;20.60;;;;;;;5.29;92.03;100363.44;124739;1108;102157;-80
2023/11/22 05:28:17;;;;;;;45.07;18.50;;;;;;;5.28;92.46;100366.84;124609;1109;104208;-83
2023/11/22 05:30:50;;;;;;;42.47;16.87;;;;;;;5.31;92.54;100362.69;124699;1108;102214;-82
2023/11/22 05:33:24;;;;;;;46.20;18.40;;;;;;;5.29;92.61;100364.32;124589;1108;104063;-80
2023/11/22 05:35:54;;;;;;;;;;;;;;;5.28;92.38;100375.53;124460;1108;104203;-79
2023/11/22 05:38:26;;;;;;;54.47;21.53;;;;;;;5.23;92.36;100384.80;124549;1109;102678;-79
2023/11/22 05:40:58;;;;;;;55.13;22.50;;;;;;;5.19;92.75;100380.26;124511;1108;104322;-81
2023/11/22 05:43:29;;;;;;;51.93;20.43;;;;;;;5.21;92.58;100389.03;124730;1106;101856;-79
2023/11/22 05:46:03;;;;;;;51.73;19.67;;;;;;;5.22;92.78;100394.32;124648;1109;102406;-79
2023/11/22 05:48:35;;;;;;;49.95;19.00;;;;;;;5.24;92.82;100402.21;124874;1109;104239;-80
2023/11/22 05:51:08;;;;;;;51.33;19.57;;;;;;;5.24;92.53;100402.21;124849;1108;104275;-79
2023/11/22 05:53:41;;;;;;;53.13;19.00;;;;;;;5.24;92.82;100404.81;124828;1108;104178;-81
2023/11/22 05:56:14;;;;;;;51.73;18.55;;;;;;;5.27;92.16;100404.98;124546;1108;101922;-80
2023/11/22 05:58:46;;;;;;;45.53;18.40;;;;;;;5.30;92.64;100414.64;124534;1108;103948;-81
2023/11/22 06:01:21;;;;;;;49.47;18.50;;;;;;;5.35;92.54;100413.21;124958;1108;102810;-81
2023/11/22 06:03:52;;;;;;;48.53;19.10;;;;;;;5.38;92.60;100418.59;124766;1108;102911;-81
2023/11/22 06:06:24;;;;;;;47.73;18.10;;;;;;;5.40;92.93;100419.55;124595;1109;104182;-80
2023/11/22 06:08:57;;;;;;;;;;;;;;;5.44;92.86;100425.81;124479;1107;104233;-83
2023/11/22 06:11:28;;;;;;;41.70;16.05;;;;;;;5.46;93.14;100426.81;124705;1109;102943;-78
2023/11/22 06:14:00;;;;;;;41.45;16.65;;;;;;;5.50;92.68;100433.95;124694;1108;104311;-81
2023/11/22 06:16:31;;;;;;;42.33;17.73;;;;;;;5.55;92.96;100440.34;124417;1108;104264;-78
2023/11/22 06:19:03;;;;;;;47.67;18.80;;;;;;;5.61;92.85;100431.94;124366;1109;102121;-77
2023/11/22 06:21:36;;;;;;;46.23;18.23;;;;;;;5.66;93.29;100439.20;124217;1108;104226;-80
2023/11/22 06:24:11;;;;;;;47.47;18.40;;;;;;;5.70;93.37;100435.05;124223;1108;104188;-77
2023/11/22 06:26:42;;;;;;;49.73;19.00;;;;;;;5.68;92.85;100445.38;124374;1109;104245;-78
2023/11/22 06:29:16;;;;;;;44.93;19.23;;;;;;;5.63;92.60;100448.56;124337;1108;104294;-79
2023/11/22 06:31:49;;;;;;;47.80;19.20;;;;;;;5.62;93.55;100447.64;124228;1109;102515;-77
2023/11/22 06:34:20;;;;;;;48.40;19.80;;;;;;;5.63;93.18;100452.05;124204;1109;104246;-76
2023/11/22 06:36:52;;;;;;;51.47;19.37;;;;;;;5.66;92.89;100457.43;124132;1109;104268;-81
2023/11/22 06:39:27;;;;;;;49.37;18.87;;;;;;;5.67;93.08;100455.70;124349;1108;102947;-76
2023/11/22 06:41:58;;;;;;;50.73;19.30;;;;;;;5.70;92.89;100453.27;124299;1108;102308;-78
2023/11/22 06:44:30;;;;;;;48.50;18.73;;;;;;;5.73;93.05;100456.96;124296;1108;104265;-79
2023/11/22 06:47:02;;;;;;;45.23;18.23;;;;;;;5.78;93.32;100461.50;124267;1108;104208;-80
2023/11/22 06:49:36;;;;;;;44.43;17.80;;;;;;;5.76;93.51;100467.55;124287;1108;104185;-79
2023/11/22 06:52:10;;;;;;;48.55;19.07;;;;;;;5.73;92.91;100456.05;124153;1108;103216;-81
2023/11/22 06:54:45;;;;;;;53.70;21.27;;;;;;;5.79;93.37;100464.19;124081;1108;104216;-79
2023/11/22 06:57:22;;;;;;;56.13;22.43;;;;;;;5.69;92.46;100470.61;124128;1109;102884;-77
2023/11/22 06:59:58;;;;;;;51.40;21.13;;;;;;;5.59;92.53;100470.91;124034;1109;104198;-75
2023/11/22 07:02:31;;;;;;;54.37;20.97;;;;;;;5.53;92.66;100473.17;124139;1109;104366;-74
2023/11/22 07:05:06;;;;;;;50.27;20.80;;;;;;;5.42;92.21;100474.29;124041;1109;102612;-76
2023/11/22 07:07:56;;;;;;;49.60;19.93;;;;;;;5.38;92.55;100474.12;124324;1108;102570;-77
2023/11/22 07:10:35;;;;;;;49.53;20.20;;;;;;;5.43;92.86;100476.09;124128;1108;104192;-80
2023/11/22 07:13:12;;;;;;;51.47;20.03;;;;;;;5.47;93.16;100476.35;124325;1108;104291;-76
2023/11/22 07:15:47;;;;;;;52.37;19.80;;;;;;;5.53;93.13;100475.77;124481;1108;104323;-80
2023/11/22 07:18:33;;;;;;;50.17;19.30;;;;;;;5.52;93.01;100482.70;124454;1108;101884;-78
2023/11/22 07:21:16;;;;;;;48.80;19.30;;;;;;;5.55;92.96;100476.78;124120;1109;104290;-76
2023/11/22 07:23:48;;;;;;;48.23;19.17;;;;;;;5.62;93.18;100475.40;124100;1109;107522;-77
2023/11/22 07:26:42;;;;;;;47.97;19.20;;;;;;;5.62;92.70;100481.49;124419;1109;104188;-77
2023/11/22 07:29:43;;;;;;;47.60;18.60;;;;;;;5.62;92.97;100488.41;125125;1109;102432;-81
2023/11/22 07:32:20;;;;;;;48.83;18.40;;;;;;;5.60;92.97;100490.94;125187;1108;101933;-80
2023/11/22 07:34:55;;;;;;;51.70;19.63;;;;;;;5.60;92.51;100493.53;124290;1108;104236;-80
2023/11/22 07:37:31;;;;;;;51.60;20.13;;;;;;;5.58;92.90;100487.36;124367;1109;103817;-78
2023/11/22 07:40:09;;;;;;;49.50;19.33;;;;;;;5.59;93.19;100496.94;124394;1109;103239;-78
2023/11/22 07:42:45;;;;;;;55.10;22.00;;;;;;;5.57;92.81;100498.57;124264;1109;104020;-78
2023/11/22 07:45:22;;;;;;;55.93;22.27;;;;;;;5.49;92.87;100505.06;124422;1107;104258;-80
2023/11/22 07:47:59;;;;;;;48.83;19.73;;;;;;;5.42;92.81;100508.12;124166;1109;104790;-79
2023/11/22 07:50:32;;;;;;;50.80;19.87;;;;;;;5.37;92.34;100511.34;124273;1109;103827;-80
2023/11/22 07:53:39;;;;;;;;;;;;;;;;;;;;;
2023/11/22 07:56:40;;;;;;;;;;;;;;;;;;;;;
2023/11/22 07:59:36;;;;;;;;;;;;;;;;;;;;;
2023/11/22 08:02:23;;;;;;;52.40;19.73;;;;;;;5.58;93.09;100526.41;125093;1109;102827;-77
2023/11/22 08:05:15;;;;;;;52.90;21.27;;;;;;;5.64;93.08;100523.23;124330;1109;107103;-77
2023/11/22 08:08:31;;;;;;;51.37;19.17;;;;;;;5.63;92.90;100524.95;124690;1109;103079;-77
2023/11/22 08:11:15;;;;;;;47.87;19.63;;;;;;;5.60;93.06;100529.98;123922;1109;103452;-77
2023/11/22 08:14:14;;;;;;;51.13;19.20;;;;;;;5.64;93.30;100537.16;124101;1109;102498;-76
2023/11/22 08:21:05;;;;;;;47.63;19.33;;;;;;;5.73;93.58;100535.08;124033;1109;103254;-76
2023/11/22 08:23:42;;;;;;;41.93;17.90;;;;;;;5.71;93.36;100534.07;124381;1109;104102;-76
2023/11/22 08:26:25;;;;;;;50.93;20.17;;;;;;;5.76;93.41;100532.64;123996;1108;104236;-74
2023/11/22 08:29:01;;;;;;;52.13;22.53;;;;;;;5.78;92.76;100537.02;123923;1109;104191;-76
2023/11/22 08:31:39;;;;;;;48.63;20.53;;;;;;;5.76;93.24;100540.45;124193;1109;104309;-76
2023/11/22 08:34:48;;;;;;;46.73;20.30;;;;;;;5.78;93.27;100537.94;124368;1109;104195;-76
2023/11/22 08:38:03;;;;;;;;;;;;;;;;;;;;;
2023/11/22 08:40:38;;;;;;;50.43;22.67;;;;;;;5.66;92.70;100545.06;124065;1108;102241;-75
2023/11/22 08:43:07;;;;;;;;;;;;;;;5.63;93.12;100537.96;124116;1109;104664;-77
2023/11/22 08:45:43;;;;;;;46.57;20.60;;;;;;;5.62;93.02;100538.77;124045;1109;102140;-77
2023/11/22 08:48:24;;;;;;;45.17;18.10;;;;;;;5.66;93.33;100539.85;124087;1109;104195;-79
2023/11/22 08:51:17;;;;;;;45.50;19.75;;;;;;;5.64;93.07;100538.84;124060;1109;104337;-75
2023/11/22 08:53:59;;;;;;;45.13;19.93;;;;;;;5.64;93.15;100541.45;124119;1108;104201;-78
2023/11/22 08:56:34;;;;;;;47.60;20.50;;;;;;;5.70;93.60;100537.50;123983;1108;104290;-76
2023/11/22 08:59:09;;;;;;;45.05;19.10;;;;;;;5.79;93.53;100544.03;123972;1108;102709;-75
2023/11/22 09:01:59;;;;;;;42.47;18.57;;;;;;;5.80;93.30;100545.80;124019;1109;102138;-76
2023/11/22 09:04:32;;;;;;;43.03;17.63;;;;;;;5.85;93.36;100541.77;124044;1108;104127;-75
2023/11/22 09:07:05;;;;;;;40.23;17.23;;;;;;;5.88;93.42;100534.12;124252;1109;102172;-77
2023/11/22 09:09:53;;;;;;;36.33;16.75;;;;;;;5.87;93.20;100534.92;124341;1109;104238;-75
2023/11/22 09:12:33;;;;;;;40.67;17.33;;;;;;;5.89;93.20;100525.48;124085;1108;104199;-76
2023/11/22 09:15:26;;;;;;;35.90;16.10;;;;;;;5.92;93.28;100533.45;124182;1108;104823;-78
2023/11/22 09:18:21;;;;;;;40.40;15.13;;;;;;;5.89;93.02;100521.19;124110;1108;103546;-76
2023/11/22 09:21:10;;;;;;;36.83;15.17;;;;;;;5.86;93.56;100525.30;124080;1109;102062;-74
2023/11/22 09:23:44;;;;;;;32.07;12.50;;;;;;;5.88;93.08;100529.80;123931;1109;101952;-75
2023/11/22 09:26:15;;;;;;;32.80;13.33;;;;;;;5.90;93.16;100525.56;123862;1109;104402;-76
2023/11/22 09:28:50;;;;;;;31.30;14.13;;;;;;;5.89;93.07;100530.69;123899;1108;104207;-75
2023/11/22 09:31:25;;;;;;;35.13;15.33;;;;;;;5.85;92.96;100528.75;124088;1109;102869;-75
2023/11/22 09:33:58;;;;;;;36.60;15.50;;;;;;;5.83;93.69;100527.74;124091;1109;102002;-75
2023/11/22 09:36:32;;;;;;;37.00;16.10;;;;;;;5.87;93.45;100527.11;123843;1109;104679;-75
2023/11/22 09:39:08;;;;;;;;;;;;;;;5.87;93.20;100532.31;123962;1109;103083;-76
2023/11/22 09:41:42;;;;;;;36.37;15.07;;;;;;;5.88;93.46;100539.33;124019;1108;102347;-74
2023/11/22 09:44:14;;;;;;;34.00;15.33;;;;;;;5.86;93.19;100543.53;123948;1106;104205;-75
2023/11/22 09:46:54;;;;;;;38.90;16.17;;;;;;;5.86;93.07;100543.53;124083;1106;111070;-76
2023/11/22 09:49:31;;;;;;;34.47;15.43;;;;;;;5.84;93.14;100534.75;123974;1109;103118;-76
2023/11/22 09:52:20;;;;;;;38.07;15.17;;;;;;;5.82;92.99;100537.27;124400;1108;104188;-76
2023/11/22 09:55:52;;;;;;;;;;;;;;;;;;;;;
2023/11/22 09:59:07;;;;;;;37.17;16.00;;;;;;;5.82;93.54;100552.02;124196;1109;102267;-75
2023/11/22 10:01:41;;;;;;;36.60;16.93;;;;;;;5.82;93.72;100555.50;124123;1109;103454;-76
2023/11/22 10:04:18;;;;;;;35.27;14.63;;;;;;;5.82;93.69;100562.42;124185;1109;103695;-75
2023/11/22 10:06:55;;;;;;;32.67;14.13;;;;;;;5.82;93.63;100571.12;124298;1109;103443;-77
2023/11/22 10:09:41;;;;;;;32.37;14.23;;;;;;;5.84;93.19;100566.89;124357;1108;104191;-76
2023/11/22 10:12:21;;;;;;;42.83;17.87;;;;;;;5.85;93.26;100570.41;124280;1108;102490;-77
2023/11/22 10:14:57;;;;;;;53.13;20.67;;;;;;;5.85;93.53;100575.62;124323;1109;102335;-77
2023/11/22 10:17:41;;;;;;;64.23;24.73;;;;;;;5.81;93.32;100579.73;124248;1108;104210;-76
2023/11/22 10:20:25;;;;;;;59.73;24.47;;;;;;;5.79;93.37;100578.77;124279;1108;104246;-75
2023/11/22 10:22:59;;;;;;;48.50;18.20;;;;;;;5.81;93.84;100568.44;124580;1109;102449;-76
2023/11/22 10:25:32;;;;;;;45.13;16.60;;;;;;;5.82;93.74;100575.45;124477;1109;102663;-75
2023/11/22 10:28:04;;;;;;;41.00;16.67;;;;;;;5.78;93.58;100570.87;124104;1109;103251;-74
2023/11/22 10:30:39;;;;;;;46.55;15.95;;;;;;;5.73;93.90;100579.34;124290;1109;103684;-75
2023/11/22 10:33:18;;;;;;;47.60;17.33;;;;;;;5.68;94.33;100588.57;124762;1109;104227;-76
2023/11/22 10:39:00;;;;;;;42.90;16.03;;;;;;;5.61;94.44;100586.45;125128;1109;103709;-79
2023/11/22 10:41:34;;;;;;;47.90;17.30;;;;;;;5.57;94.84;100585.36;125107;1108;104194;-73
2023/11/22 10:44:10;;;;;;;43.27;17.87;;;;;;;5.55;94.60;100591.30;124208;1109;104261;-74
2023/11/22 10:46:52;;;;;;;44.17;17.27;;;;;;;5.56;95.00;100583.59;124222;1108;103580;-73
2023/11/22 10:49:36;;;;;;;42.23;17.43;;;;;;;5.55;94.54;100586.98;124215;1109;107082;-74
2023/11/22 10:52:17;;;;;;;49.53;19.87;;;;;;;5.53;94.26;100585.09;124332;1109;104255;-75
2023/11/22 10:55:03;;;;;;;44.97;17.67;;;;;;;5.55;94.93;100600.00;124239;1109;103273;-74
2023/11/22 10:57:51;;;;;;;49.70;18.33;;;;;;;5.55;94.54;100606.92;124268;1108;102529;-76
2023/11/22 11:00:27;;;;;;;44.33;16.73;;;;;;;5.57;94.71;100605.30;124334;1109;104048;-76
2023/11/22 11:03:13;;;;;;;42.40;17.23;;;;;;;5.59;94.98;100603.67;124357;1108;104086;-76
2023/11/22 11:05:57;;;;;;;39.17;15.00;;;;;;;5.61;94.93;100608.96;124424;1108;104192;-80
2023/11/22 11:08:31;;;;;;;38.63;15.23;;;;;;;5.61;95.45;100614.17;124420;1108;102956;-76
2023/11/22 11:11:07;;;;;;;38.70;14.07;;;;;;;5.63;95.54;100612.57;124260;1109;103015;-76
2023/11/22 11:13:40;;;;;;;;;;;;;;;5.63;95.55;100621.27;124383;1108;103449;-77
2023/11/22 11:16:20;;;;;;;39.40;16.30;;;;;;;5.64;95.07;100619.55;124332;1108;104044;-80
2023/11/22 11:18:53;;;;;;;34.83;14.63;;;;;;;5.64;95.36;100628.28;124403;1109;102560;-78
2023/11/22 11:21:31;;;;;;;43.50;16.97;;;;;;;5.66;95.28;100628.37;124352;1109;103274;-75
2023/11/22 11:24:04;;;;;;;39.87;16.47;;;;;;;5.68;95.35;100624.14;124357;1108;104364;-76
2023/11/22 11:26:39;;;;;;;38.27;14.83;;;;;;;5.68;95.29;100629.34;124499;1109;104221;-75
2023/11/22 11:29:43;;;;;;;39.10;16.23;;;;;;;5.69;95.54;100626.83;124429;1109;104543;-77
2023/11/22 11:32:31;;;;;;;37.57;15.30;;;;;;;5.70;95.71;100633.84;124299;1108;103560;-79
2023/11/22 11:35:07;;;;;;;34.35;13.95;;;;;;;5.71;95.46;100639.94;124374;1108;104114;-77
2023/11/22 11:38:01;;;;;;;36.63;14.50;;;;;;;5.69;95.70;100642.45;124263;1109;101893;-76
2023/11/22 11:40:41;;;;;;;33.63;14.70;;;;;;;5.68;95.61;100643.25;124276;1108;118109;-76
2023/11/22 11:43:14;;;;;;;37.43;13.70;;;;;;;5.68;96.08;100643.25;124090;1108;104105;-75
2023/11/22 11:45:49;;;;;;;35.00;13.83;;;;;;;5.68;95.96;100638.04;124201;1108;102583;-78
2023/11/22 11:48:26;;;;;;;32.77;14.17;;;;;;;5.67;95.94;100638.88;124268;1108;102413;-77
2023/11/22 11:51:02;;;;;;;36.83;14.30;;;;;;;5.66;95.89;100647.48;124127;1109;104274;-75
2023/11/22 11:53:34;;;;;;;37.77;15.83;;;;;;;5.67;95.59;100657.09;124229;1108;102804;-74
2023/11/22 11:56:08;;;;;;;37.97;16.90;;;;;;;5.66;95.76;100657.89;123931;1107;104384;-73